Time;durP1;ratioP1;P1;durP2;ratioP2;P2;SDS_P1;SDS_P2;PMS_P1;PMS_P2;Temp;Humidity;BMP_temperature;BMP_pressure;BME280_temperature;BME280_humidity;BME280_pressure;Samples;Min_cycle;Max_cycle;Signal;HPM_P1;HPM_P2
2023/04/04 00:01:04;;;;;;;8.50;3.40;;;;;;;1.62;70.06;102756.81;5263288;28;20370;-71
2023/04/04 00:03:35;;;;;;;5.53;3.00;;;;;;;1.54;70.51;102750.34;5263173;28;20040;-71
2023/04/04 00:06:07;;;;;;;7.47;3.70;;;;;;;1.56;71.12;102753.91;5263232;28;20048;-71
2023/04/04 00:08:38;;;;;;;6.67;3.27;;;;;;;1.47;71.01;102745.69;5263014;28;20037;-71
2023/04/04 00:11:10;;;;;;;21.50;4.17;;;;;;;1.39;71.50;102752.97;5263171;28;20035;-70
2023/04/04 00:13:42;;;;;;;9.77;4.60;;;;;;;1.33;71.49;102759.44;5262991;28;20025;-70
2023/04/04 00:16:13;;;;;;;6.53;3.00;;;;;;;1.33;71.49;102762.88;5295445;28;20090;-70
2023/04/04 00:18:44;;;;;;;6.43;3.50;;;;;;;1.20;72.31;102766.44;5262826;28;20552;-70
2023/04/04 00:21:16;;;;;;;6.90;3.37;;;;;;;1.14;72.81;102760.94;5262543;28;20056;-70
2023/04/04 00:23:48;;;;;;;6.97;3.03;;;;;;;1.12;73.01;102770.25;5262939;28;20056;-70
2023/04/04 00:26:20;;;;;;;8.13;3.00;;;;;;;0.93;72.85;102769.97;5262998;28;20102;-70
2023/04/04 00:28:52;;;;;;;6.88;3.20;;;;;;;0.91;73.04;102768.19;5262703;28;20380;-71
2023/04/04 00:31:23;;;;;;;8.23;3.63;;;;;;;0.84;74.18;102760.94;5262446;28;20032;-71
2023/04/04 00:33:55;;;;;;;7.87;3.73;;;;;;;0.87;74.10;102762.78;5262567;28;20111;-71
2023/04/04 00:36:26;;;;;;;9.87;3.17;;;;;;;0.79;74.93;102761.44;5262713;28;20029;-71
2023/04/04 00:38:57;;;;;;;7.67;4.07;;;;;;;0.68;75.31;102764.28;5262631;28;20036;-71
2023/04/04 00:41:29;;;;;;;6.17;3.43;;;;;;;0.67;75.29;102767.63;5262781;28;20098;-70
2023/04/04 00:44:00;;;;;;;5.60;3.17;;;;;;;0.66;75.42;102764.97;5261824;28;20111;-70
2023/04/04 00:46:32;;;;;;;6.73;3.10;;;;;;;0.65;76.07;102768.34;5262504;28;20539;-70
2023/04/04 00:49:03;;;;;;;6.83;3.20;;;;;;;0.57;75.58;102760.19;5262799;28;20025;-70
2023/04/04 00:51:35;;;;;;;5.67;3.23;;;;;;;0.56;76.14;102772.94;5260870;28;20048;-70
2023/04/04 00:54:06;;;;;;;10.13;3.53;;;;;;;0.53;75.81;102771.06;5261300;28;20052;-71
2023/04/04 00:56:38;;;;;;;7.47;3.10;;;;;;;0.56;75.94;102771.25;5262426;28;20569;-70
2023/04/04 00:59:10;;;;;;;6.32;2.97;;;;;;;0.53;76.18;102766.81;5262773;28;20025;-71
2023/04/04 01:01:41;;;;;;;8.13;3.17;;;;;;;0.54;76.34;102763.44;5262250;28;20098;-70
2023/04/04 01:04:14;;;;;;;6.87;3.23;;;;;;;0.54;77.11;102775.41;5262388;28;20037;-70
2023/04/04 01:06:45;;;;;;;6.38;2.97;;;;;;;0.47;76.78;102771.59;5262331;28;20067;-71
2023/04/04 01:09:17;;;;;;;6.77;3.10;;;;;;;0.49;76.89;102766.53;5262434;28;20461;-70
2023/04/04 01:11:49;;;;;;;8.32;3.10;;;;;;;0.44;77.75;102773.09;5262373;28;20025;-70
2023/04/04 01:14:21;;;;;;;8.53;3.20;;;;;;;0.47;78.08;102770.72;5262263;28;20037;-70
2023/04/04 01:16:53;;;;;;;7.77;3.30;;;;;;;0.52;78.38;102764.16;5262231;28;20385;-70
2023/04/04 01:20:09;;;;;;;6.20;3.13;;;;;;;0.54;78.36;102760.00;5261848;28;20045;-71
2023/04/04 01:22:42;;;;;;;5.85;3.00;;;;;;;0.51;77.98;102757.25;5256141;28;20425;-70
2023/04/04 01:25:16;;;;;;;6.88;2.88;;;;;;;0.40;78.08;102751.47;5262177;28;20028;-71
2023/04/04 01:27:48;;;;;;;6.45;4.00;;;;;;;0.33;78.24;102746.75;5261878;28;20047;-71
2023/04/04 01:30:20;;;;;;;11.13;3.97;;;;;;;0.33;78.46;102736.50;5261008;28;20029;-71
2023/04/04 01:33:09;;;;;;;5.83;3.47;;;;;;;0.28;79.00;102736.22;5262096;28;20044;-70
2023/04/04 01:36:00;;;;;;;7.70;3.08;;;;;;;0.15;78.88;102738.84;5262047;28;20044;-70
2023/04/04 01:38:51;;;;;;;6.43;3.17;;;;;;;0.19;80.17;102740.78;5262181;28;20029;-71
2023/04/04 01:41:24;;;;;;;7.45;3.35;;;;;;;0.14;79.64;102732.81;5262148;28;20190;-72
2023/04/04 01:43:56;;;;;;;4.15;3.10;;;;;;;0.11;79.03;102736.88;5261953;28;20079;-71
2023/04/04 01:46:28;;;;;;;6.23;3.33;;;;;;;0.08;79.38;102732.47;5262127;28;20037;-72
2023/04/04 01:48:59;;;;;;;15.13;4.10;;;;;;;0.12;80.04;102733.53;5261992;28;20056;-72
2023/04/04 01:51:31;;;;;;;8.30;3.50;;;;;;;-0.04;79.45;102734.25;5261256;28;20037;-70
2023/04/04 01:54:03;;;;;;;7.07;3.55;;;;;;;-0.02;79.05;102731.00;5261825;28;20522;-72
2023/04/04 01:56:34;;;;;;;5.37;2.93;;;;;;;-0.04;79.04;102732.56;5264971;28;20059;-69
2023/04/04 01:59:06;;;;;;;7.73;2.97;;;;;;;-0.14;78.81;102725.09;5265725;28;20503;-69
2023/04/04 02:01:37;;;;;;;5.80;2.93;;;;;;;-0.07;79.39;102728.94;5265709;28;20092;-69
2023/04/04 02:04:11;;;;;;;7.80;3.50;;;;;;;-0.16;79.78;102734.38;5265638;28;20028;-70
2023/04/04 02:06:43;;;;;;;6.80;3.30;;;;;;;-0.20;79.45;102730.72;5265490;28;20385;-70
2023/04/04 02:09:14;;;;;;;8.13;3.00;;;;;;;-0.25;79.10;102727.00;5265516;28;20029;-71
2023/04/04 02:11:45;;;;;;;10.73;3.30;;;;;;;-0.21;80.00;102736.66;5264282;28;20025;-70
2023/04/04 02:14:17;;;;;;;9.40;3.37;;;;;;;-0.18;80.00;102733.38;5265236;28;20084;-70
2023/04/04 02:16:48;;;;;;;13.60;3.53;;;;;;;-0.21;80.17;102738.31;5265551;28;20431;-70
2023/04/04 02:19:20;;;;;;;6.57;3.40;;;;;;;-0.29;80.41;102739.50;5265273;28;20053;-73
2023/04/04 02:21:51;;;;;;;9.07;3.40;;;;;;;-0.39;80.43;102738.94;5264788;28;20435;-71
2023/04/04 02:24:22;;;;;;;6.03;3.30;;;;;;;-0.43;80.84;102736.09;5264968;28;20068;-71
2023/04/04 02:26:54;;;;;;;6.37;3.40;;;;;;;-0.42;80.99;102743.88;5265250;28;20041;-71
2023/04/04 02:29:25;;;;;;;8.80;3.27;;;;;;;-0.47;81.09;102737.56;5265106;28;20086;-71
2023/04/04 02:31:57;;;;;;;6.17;3.17;;;;;;;-0.49;81.07;102746.81;5265164;28;20037;-71
2023/04/04 02:34:28;;;;;;;7.80;3.40;;;;;;;-0.59;80.99;102741.91;5265015;28;20135;-70
2023/04/04 02:37:00;;;;;;;6.77;3.30;;;;;;;-0.60;81.37;102755.50;5264976;28;20040;-70
2023/04/04 02:39:32;;;;;;;5.85;3.25;;;;;;;-0.68;82.00;102759.25;5265243;28;20484;-70
2023/04/04 02:42:03;;;;;;;9.97;3.30;;;;;;;-0.77;82.29;102759.53;5264898;28;20072;-70
2023/04/04 02:44:35;;;;;;;7.90;3.73;;;;;;;-0.80;82.87;102754.22;5264913;28;20388;-70
2023/04/04 02:47:06;;;;;;;6.80;3.50;;;;;;;-0.83;83.13;102754.00;5264886;28;20075;-70
2023/04/04 02:49:38;;;;;;;6.10;3.47;;;;;;;-0.89;83.81;102748.47;5264397;28;20033;-71
2023/04/04 02:52:09;;;;;;;7.63;3.83;;;;;;;-0.97;84.61;102743.72;5264560;28;20037;-70
2023/04/04 02:54:40;;;;;;;9.70;3.57;;;;;;;-0.99;84.48;102741.88;5264624;28;20594;-70
2023/04/04 02:57:12;;;;;;;6.57;3.63;;;;;;;-1.03;84.49;102740.78;5264577;28;20029;-71
2023/04/04 02:59:43;;;;;;;8.37;3.67;;;;;;;-1.00;85.25;102738.44;5264570;28;20537;-71
2023/04/04 03:02:14;;;;;;;8.10;3.90;;;;;;;-1.17;85.47;102739.88;5264464;28;20064;-71
2023/04/04 03:04:46;;;;;;;6.73;3.60;;;;;;;-1.16;85.67;102740.75;5264419;28;20033;-70
2023/04/04 03:07:18;;;;;;;8.20;4.20;;;;;;;-1.15;86.61;102745.09;5263243;28;20044;-71
2023/04/04 03:09:49;;;;;;;7.63;3.57;;;;;;;-1.21;86.30;102739.56;5264372;28;20033;-70
2023/04/04 03:12:21;;;;;;;6.63;3.70;;;;;;;-1.25;86.29;102742.72;5264178;28;20028;-70
2023/04/04 03:14:52;;;;;;;7.97;3.83;;;;;;;-1.32;86.43;102736.28;5264131;28;20041;-70
2023/04/04 03:17:24;;;;;;;8.17;3.47;;;;;;;-1.27;86.97;102745.16;5264146;28;20423;-71
2023/04/04 03:19:55;;;;;;;9.60;3.85;;;;;;;-1.34;86.99;102748.97;5263854;28;20056;-70
2023/04/04 03:22:27;;;;;;;8.83;3.90;;;;;;;-1.26;87.00;102741.81;5264108;28;20411;-71
2023/04/04 03:24:58;;;;;;;9.70;4.10;;;;;;;-1.34;86.68;102746.41;5264292;28;20029;-70
2023/04/04 03:27:31;;;;;;;8.20;3.77;;;;;;;-1.30;87.30;102742.41;5263972;28;20446;-70
2023/04/04 03:30:02;;;;;;;;;;;;;;;-1.30;86.19;102747.53;5264423;28;20129;-70
2023/04/04 03:32:36;;;;;;;6.63;3.50;;;;;;;-1.33;86.37;102753.31;5263936;28;19999;-70
2023/04/04 03:35:07;;;;;;;10.10;4.00;;;;;;;-1.31;87.05;102741.50;5262540;28;20021;-70
2023/04/04 03:37:39;;;;;;;6.63;3.47;;;;;;;-1.38;87.31;102738.44;5263763;28;20488;-70
2023/04/04 03:40:11;;;;;;;11.33;3.80;;;;;;;-1.36;87.50;102737.75;5263738;28;20029;-70
2023/04/04 03:42:42;;;;;;;8.27;3.63;;;;;;;-1.43;87.74;102721.88;5263709;28;20044;-70
2023/04/04 03:45:13;;;;;;;6.50;3.43;;;;;;;-1.42;88.43;102724.53;5263889;28;20033;-70
2023/04/04 03:47:45;;;;;;;13.93;4.33;;;;;;;-1.42;88.74;102724.53;5262255;28;20033;-70
2023/04/04 03:50:16;;;;;;;4.57;3.20;;;;;;;-1.42;89.02;102724.53;5263104;28;20033;-70
2023/04/04 03:52:47;;;;;;;8.10;4.13;;;;;;;-1.51;89.04;102714.59;5263468;28;20025;-70
2023/04/04 03:55:19;;;;;;;11.43;4.37;;;;;;;-1.57;88.55;102711.59;5263335;28;20084;-69
2023/04/04 03:57:51;;;;;;;9.50;3.90;;;;;;;-1.53;88.77;102712.69;5262136;28;20029;-69
2023/04/04 04:00:22;;;;;;;8.65;3.90;;;;;;;-1.58;88.97;102712.38;5263417;28;20029;-69
2023/04/04 04:02:54;;;;;;;9.50;3.67;;;;;;;-1.58;89.24;102707.25;5263283;28;20029;-70
2023/04/04 04:05:25;;;;;;;9.53;3.80;;;;;;;-1.59;89.15;102709.75;5262935;28;20116;-70
2023/04/04 04:07:56;;;;;;;11.07;5.07;;;;;;;-1.59;89.96;102713.19;5263201;28;20434;-70
2023/04/04 04:10:28;;;;;;;8.47;3.97;;;;;;;-1.70;89.84;102711.56;5263235;28;20120;-70
2023/04/04 04:13:00;;;;;;;8.37;3.80;;;;;;;-1.70;89.84;102721.78;5261915;28;20025;-70
2023/04/04 04:15:31;;;;;;;11.27;4.45;;;;;;;-1.74;89.24;102730.03;5262979;28;20037;-70
2023/04/04 04:18:03;;;;;;;8.43;3.90;;;;;;;-1.77;89.39;102714.47;5262418;28;20080;-70
2023/04/04 04:20:34;;;;;;;8.27;3.83;;;;;;;-1.71;90.45;102725.13;5262502;28;20091;-69
2023/04/04 04:23:06;;;;;;;10.03;4.30;;;;;;;-1.80;91.03;102719.38;5262989;28;20071;-69
2023/04/04 04:25:37;;;;;;;11.97;4.60;;;;;;;-1.81;90.17;102718.50;5262879;28;20028;-69
2023/04/04 04:28:08;;;;;;;7.07;5.13;;;;;;;-1.84;90.75;102708.06;5262943;28;20083;-69
2023/04/04 04:30:40;;;;;;;10.63;4.27;;;;;;;-1.89;91.08;102711.97;5262761;28;20104;-69
2023/04/04 04:33:11;;;;;;;12.40;5.20;;;;;;;-1.91;90.90;102716.97;5262666;28;20059;-70
2023/04/04 04:35:43;;;;;;;8.23;4.20;;;;;;;-1.91;91.31;102711.84;5262732;28;20029;-69
2023/04/04 04:38:14;;;;;;;8.43;4.30;;;;;;;-1.93;91.37;102709.97;5261418;28;20065;-69
2023/04/04 04:40:46;;;;;;;9.93;4.00;;;;;;;-1.95;91.66;102707.31;5262702;28;20384;-69
2023/04/04 04:43:17;;;;;;;13.47;5.73;;;;;;;-1.99;91.94;102715.56;5262778;28;20061;-68
2023/04/04 04:45:49;;;;;;;10.33;4.20;;;;;;;-2.00;92.02;102707.78;5262547;28;20064;-69
2023/04/04 04:48:21;;;;;;;14.00;4.53;;;;;;;-2.06;92.17;102711.69;5262598;28;20075;-68
2023/04/04 04:50:52;;;;;;;8.20;4.33;;;;;;;-2.10;91.88;102709.69;5262035;28;20033;-69
2023/04/04 04:53:23;;;;;;;6.00;3.97;;;;;;;-2.15;91.84;102711.03;5262361;28;20075;-68
2023/04/04 04:55:55;;;;;;;7.50;4.20;;;;;;;-2.12;92.25;102725.72;5262572;28;20037;-69
2023/04/04 04:58:26;;;;;;;14.10;4.93;;;;;;;-2.18;92.26;102732.94;5262421;28;20025;-69
2023/04/04 05:00:57;;;;;;;8.63;4.30;;;;;;;-2.18;92.32;102735.50;5262190;28;20029;-68
2023/04/04 05:03:29;;;;;;;7.37;4.10;;;;;;;-2.14;92.58;102742.56;5262280;28;20385;-69
2023/04/04 05:06:00;;;;;;;10.40;5.00;;;;;;;-2.19;92.88;102739.69;5262387;28;20434;-68
2023/04/04 05:08:32;;;;;;;7.07;4.37;;;;;;;-2.21;92.93;102749.84;5262154;28;20465;-69
2023/04/04 05:11:03;;;;;;;7.60;4.70;;;;;;;-2.24;93.33;102752.16;5244243;28;20116;-69
2023/04/04 05:13:34;;;;;;;13.47;6.27;;;;;;;-2.29;93.25;102753.47;5267658;28;20107;-69
2023/04/04 05:16:06;;;;;;;7.20;4.03;;;;;;;-2.24;93.45;102752.16;5282880;28;20039;-68
2023/04/04 05:18:38;;;;;;;6.47;4.50;;;;;;;-2.28;93.54;102749.28;5282425;28;20127;-69
2023/04/04 05:21:10;;;;;;;8.07;4.77;;;;;;;-2.29;93.73;102748.38;5282462;28;20037;-68
2023/04/04 05:23:41;;;;;;;9.13;4.80;;;;;;;-2.26;93.21;102747.72;5282867;28;20476;-68
2023/04/04 05:26:12;;;;;;;13.00;4.83;;;;;;;-2.22;93.50;102748.06;5281484;28;20032;-68
2023/04/04 05:28:44;;;;;;;12.43;5.30;;;;;;;-2.27;93.87;102746.84;5282390;28;20140;-69
2023/04/04 05:31:15;;;;;;;8.73;4.37;;;;;;;-2.25;93.99;102737.63;5285231;28;20438;-68
2023/04/04 05:33:46;;;;;;;11.77;5.77;;;;;;;-2.23;93.84;102748.81;5286296;28;20396;-68
2023/04/04 05:36:18;;;;;;;8.80;4.93;;;;;;;-2.20;93.97;102743.06;5286707;28;20064;-68
2023/04/04 05:38:49;;;;;;;8.80;4.83;;;;;;;-2.21;94.32;102743.81;5286325;28;20025;-68
2023/04/04 05:41:21;;;;;;;9.40;4.13;;;;;;;-2.16;94.59;102744.16;5286637;28;20040;-68
2023/04/04 05:43:52;;;;;;;7.03;4.23;;;;;;;-2.17;94.81;102748.38;5286463;28;20036;-68
2023/04/04 05:46:23;;;;;;;12.43;5.77;;;;;;;-2.13;95.06;102746.91;5286525;28;20033;-69
2023/04/04 05:48:55;;;;;;;17.60;5.53;;;;;;;-2.11;95.11;102763.25;5286771;28;20094;-69
2023/04/04 05:51:26;;;;;;;13.77;6.63;;;;;;;-2.16;94.63;102750.13;5285957;28;20028;-69
2023/04/04 05:53:58;;;;;;;16.33;5.50;;;;;;;-2.03;94.77;102764.66;5285831;28;20028;-69
2023/04/04 05:56:29;;;;;;;10.87;5.73;;;;;;;-1.99;95.17;102764.13;5286271;28;20040;-69
2023/04/04 05:59:01;;;;;;;15.23;5.07;;;;;;;-1.99;94.26;102769.22;5285944;28;20377;-69
2023/04/04 06:01:32;;;;;;;10.13;5.30;;;;;;;-1.86;94.52;102756.50;5286159;28;20047;-69
2023/04/04 06:04:03;;;;;;;15.00;5.70;;;;;;;-1.88;95.03;102757.22;5284813;28;20036;-69
2023/04/04 06:06:35;;;;;;;9.63;5.57;;;;;;;-1.72;94.96;102760.03;5286076;28;20029;-69
2023/04/04 06:09:06;;;;;;;10.43;5.33;;;;;;;-1.68;94.78;102758.56;5285846;28;20056;-69
2023/04/04 06:11:37;;;;;;;7.27;4.90;;;;;;;-1.65;94.57;102761.34;5284731;28;20036;-69
2023/04/04 06:14:09;;;;;;;10.27;5.13;;;;;;;-1.53;94.33;102761.28;5284830;28;20452;-69
2023/04/04 06:16:40;;;;;;;8.13;5.07;;;;;;;-1.49;93.89;102764.16;5285946;28;20074;-69
2023/04/04 06:19:12;;;;;;;10.67;5.47;;;;;;;-1.34;93.74;102771.97;5285878;28;20052;-70
2023/04/04 06:21:43;;;;;;;12.47;5.30;;;;;;;-1.30;93.64;102768.00;5285335;28;20073;-68
2023/04/04 06:24:15;;;;;;;11.97;5.43;;;;;;;-1.19;93.15;102768.69;5285426;28;20047;-68
2023/04/04 06:26:50;;;;;;;9.57;5.77;;;;;;;-1.02;92.55;102772.38;5285551;28;20025;-68
2023/04/04 06:29:21;;;;;;;12.85;5.50;;;;;;;-0.99;91.75;102775.16;5285499;28;20115;-68
2023/04/04 06:31:52;;;;;;;9.57;5.17;;;;;;;-0.84;91.39;102770.16;5284071;28;20152;-68
2023/04/04 06:34:24;;;;;;;10.70;5.40;;;;;;;-0.71;90.50;102782.09;5285625;28;20410;-69
2023/04/04 06:36:55;;;;;;;14.03;6.33;;;;;;;-0.66;89.50;102789.31;5285331;28;20107;-69
2023/04/04 06:39:27;;;;;;;12.53;6.70;;;;;;;-0.56;89.41;102789.09;5285367;28;20067;-69
2023/04/04 06:42:00;;;;;;;10.48;5.45;;;;;;;-0.46;88.29;102782.91;5285310;28;20039;-69
2023/04/04 06:44:31;;;;;;;10.77;6.10;;;;;;;-0.35;87.37;102787.81;5285732;28;20028;-69
2023/04/04 06:47:02;;;;;;;7.80;5.03;;;;;;;-0.25;86.42;102780.81;5285312;28;20043;-69
2023/04/04 06:49:34;;;;;;;11.40;5.27;;;;;;;-0.12;86.16;102781.59;5285396;28;20032;-70
2023/04/04 06:52:05;;;;;;;9.97;5.33;;;;;;;0.00;85.70;102779.81;5285108;28;20495;-69
2023/04/04 06:54:36;;;;;;;8.97;4.93;;;;;;;0.18;84.91;102780.06;5285236;28;20024;-69
2023/04/04 06:57:08;;;;;;;9.60;5.23;;;;;;;0.28;84.64;102797.78;5285236;28;20029;-69
2023/04/04 06:59:40;;;;;;;9.33;5.00;;;;;;;0.38;83.29;102788.09;5285156;28;20033;-69
2023/04/04 07:02:11;;;;;;;9.03;4.97;;;;;;;0.51;82.88;102785.47;5285028;28;20032;-69
2023/04/04 07:04:42;;;;;;;7.93;5.00;;;;;;;0.63;82.31;102780.19;5285064;28;20043;-69
2023/04/04 07:07:14;;;;;;;11.80;4.90;;;;;;;0.76;80.02;102786.94;5284983;28;20032;-69
2023/04/04 07:09:45;;;;;;;9.97;5.10;;;;;;;0.91;79.71;102793.88;5283589;28;20060;-69
2023/04/04 07:12:17;;;;;;;12.23;4.73;;;;;;;1.00;78.74;102785.84;5284911;28;20036;-69
2023/04/04 07:14:48;;;;;;;9.50;5.40;;;;;;;1.14;77.79;102788.31;5283331;28;20075;-69
2023/04/04 07:17:19;;;;;;;8.07;4.37;;;;;;;1.27;77.70;102793.38;5284894;28;20078;-69
2023/04/04 07:19:51;;;;;;;9.73;5.53;;;;;;;1.42;77.11;102789.13;5284147;28;20158;-69
2023/04/04 07:22:22;;;;;;;10.63;4.90;;;;;;;1.57;75.76;102795.91;5284590;28;20086;-69
2023/04/04 07:24:54;;;;;;;9.37;5.37;;;;;;;1.77;74.89;102787.66;5284535;28;20111;-69
2023/04/04 07:27:25;;;;;;;10.97;5.03;;;;;;;1.94;73.15;102786.00;5284683;28;20024;-69
2023/04/04 07:29:57;;;;;;;9.73;4.85;;;;;;;2.08;72.62;102779.03;5284370;28;20465;-69
2023/04/04 07:32:28;;;;;;;13.07;4.30;;;;;;;2.24;71.08;102777.28;5284518;28;20103;-69
2023/04/04 07:35:00;;;;;;;9.77;4.30;;;;;;;2.31;70.21;102777.69;5284396;28;20040;-69
2023/04/04 07:37:32;;;;;;;9.97;4.60;;;;;;;2.47;68.43;102768.22;5284300;28;20024;-69
2023/04/04 07:40:07;;;;;;;8.48;4.25;;;;;;;2.65;67.54;102770.84;5284318;28;20108;-70
2023/04/04 07:42:46;;;;;;;9.45;4.40;;;;;;;2.88;66.68;102772.00;5283903;28;20499;-69
2023/04/04 07:45:17;;;;;;;9.32;4.32;;;;;;;2.98;66.33;102773.38;5284185;28;20374;-69
2023/04/04 07:47:48;;;;;;;8.03;3.67;;;;;;;3.11;65.47;102775.78;5283787;28;20040;-69
2023/04/04 07:50:20;;;;;;;7.10;3.70;;;;;;;3.31;63.17;102783.59;5283483;28;20024;-70
2023/04/04 07:52:53;;;;;;;6.47;3.57;;;;;;;3.55;63.53;102778.75;5283142;28;20078;-69
2023/04/04 07:55:24;;;;;;;8.18;3.58;;;;;;;3.71;61.44;102773.50;5283603;28;20021;-70
2023/04/04 07:57:57;;;;;;;7.10;3.97;;;;;;;3.82;60.20;102772.31;5283414;28;20097;-69
2023/04/04 08:00:28;;;;;;;11.30;4.22;;;;;;;3.90;59.46;102772.69;5283336;28;20377;-69
2023/04/04 08:03:01;;;;;;;7.30;4.30;;;;;;;4.03;59.04;102773.25;5283374;28;20040;-69
2023/04/04 08:05:32;;;;;;;7.35;3.40;;;;;;;4.05;57.79;102764.75;5283715;28;20128;-69
2023/04/04 08:08:04;;;;;;;8.93;3.07;;;;;;;4.23;57.89;102777.63;5283575;28;20062;-69
2023/04/04 08:10:35;;;;;;;7.87;3.60;;;;;;;4.32;56.02;102777.16;5283469;28;20043;-69
2023/04/04 08:13:08;;;;;;;4.97;2.83;;;;;;;4.28;54.32;102771.00;5283960;28;20036;-69
2023/04/04 08:15:40;;;;;;;8.07;3.92;;;;;;;4.42;55.72;102779.34;5283607;28;20467;-69
2023/04/04 08:18:11;;;;;;;7.60;3.50;;;;;;;4.59;55.71;102785.25;5283436;28;20075;-69
2023/04/04 08:20:43;;;;;;;9.60;4.37;;;;;;;4.80;55.42;102777.56;5282025;28;20032;-70
2023/04/04 08:23:14;;;;;;;7.17;3.73;;;;;;;4.85;51.30;102785.50;5282124;28;20375;-69
2023/04/04 08:25:46;;;;;;;5.43;2.57;;;;;;;5.01;52.34;102785.34;5283420;28;20056;-69
2023/04/04 08:28:17;;;;;;;9.43;3.27;;;;;;;5.11;52.41;102777.13;5283438;28;20045;-69
2023/04/04 08:30:52;;;;;;;7.53;3.43;;;;;;;5.33;52.36;102788.38;5283396;28;20029;-69
2023/04/04 08:33:24;;;;;;;5.18;2.88;;;;;;;5.27;50.28;102791.59;5283225;28;20055;-69
2023/04/04 08:35:57;;;;;;;5.23;2.73;;;;;;;5.25;50.10;102774.25;5283349;28;20029;-69
2023/04/04 08:38:28;;;;;;;6.00;2.67;;;;;;;5.39;49.76;102774.81;5283180;28;20099;-69
2023/04/04 08:41:00;;;;;;;5.80;3.33;;;;;;;5.46;49.12;102774.25;5283109;28;20033;-69
2023/04/04 08:43:34;;;;;;;6.67;2.43;;;;;;;5.51;47.85;102777.03;5282090;28;20037;-69
2023/04/04 08:46:08;;;;;;;7.53;2.72;;;;;;;5.70;48.78;102766.59;5283114;28;20052;-69
2023/04/04 08:48:42;;;;;;;6.97;2.53;;;;;;;5.75;46.67;102767.63;5283198;28;20453;-69
2023/04/04 08:51:16;;;;;;;5.55;2.40;;;;;;;5.79;46.63;102756.56;5282705;28;20037;-69
2023/04/04 08:53:48;;;;;;;8.45;2.78;;;;;;;6.02;47.50;102754.00;5283056;28;20021;-69
2023/04/04 08:56:20;;;;;;;9.10;2.40;;;;;;;5.98;45.45;102759.91;5283187;28;20036;-69
2023/04/04 08:58:51;;;;;;;8.68;2.45;;;;;;;6.23;45.98;102766.00;5283010;28;20074;-69
2023/04/04 09:01:23;;;;;;;6.83;2.60;;;;;;;6.40;45.76;102764.91;5282725;28;20036;-69
2023/04/04 09:03:59;;;;;;;5.57;2.77;;;;;;;6.49;45.59;102765.25;5283336;28;20400;-69
2023/04/04 09:06:32;;;;;;;7.93;2.70;;;;;;;6.59;44.93;102765.59;5286617;28;20024;-69
2023/04/04 09:09:05;;;;;;;4.25;2.30;;;;;;;6.80;44.01;102768.03;5286936;28;20037;-69
2023/04/04 09:11:38;;;;;;;5.97;2.45;;;;;;;7.61;42.40;102767.22;5287119;28;20434;-69
2023/04/04 09:14:10;;;;;;;6.70;2.40;;;;;;;8.22;41.79;102763.00;5287192;28;20029;-69
2023/04/04 09:16:41;;;;;;;8.50;2.30;;;;;;;8.90;40.17;102759.66;5287159;28;20039;-70
2023/04/04 09:19:12;;;;;;;9.77;3.30;;;;;;;9.49;39.50;102762.84;5285318;28;20149;-69
2023/04/04 09:21:47;;;;;;;5.37;2.30;;;;;;;9.74;38.61;102762.53;5286254;28;20440;-69
2023/04/04 09:24:19;;;;;;;6.60;2.40;;;;;;;9.80;37.56;102755.75;5286559;28;20029;-69
2023/04/04 09:26:52;;;;;;;6.07;2.50;;;;;;;10.00;37.50;102752.72;5286935;28;20020;-70
2023/04/04 09:29:24;;;;;;;6.18;2.42;;;;;;;10.51;37.84;102766.78;5286952;28;20036;-70
2023/04/04 09:31:55;;;;;;;6.83;2.63;;;;;;;11.20;36.47;102770.63;5286858;28;20479;-70
2023/04/04 09:34:28;;;;;;;6.87;2.87;;;;;;;11.34;35.16;102763.03;5286773;28;20025;-69
2023/04/04 09:36:59;;;;;;;7.35;2.58;;;;;;;11.61;34.02;102765.19;5286886;28;20036;-70
2023/04/04 09:39:32;;;;;;;3.37;2.10;;;;;;;12.04;34.33;102760.56;5286647;28;20033;-70
2023/04/04 09:42:06;;;;;;;5.35;2.28;;;;;;;12.24;34.14;102756.47;5286662;28;20194;-70
2023/04/04 09:44:38;;;;;;;5.28;2.55;;;;;;;11.77;32.03;102754.94;5286501;28;20395;-70
2023/04/04 09:47:26;;;;;;;6.15;2.70;;;;;;;12.55;33.80;102752.44;5286669;28;20031;-69
2023/04/04 09:50:02;;;;;;;7.00;2.28;;;;;;;12.51;32.60;102761.09;5286768;28;20056;-70
2023/04/04 09:52:37;;;;;;;4.00;1.90;;;;;;;12.57;31.32;102750.69;5286141;28;20039;-70
2023/04/04 09:55:08;;;;;;;6.63;3.65;;;;;;;12.30;30.71;102752.19;5286406;28;20071;-70
2023/04/04 09:57:40;;;;;;;8.40;2.60;;;;;;;12.48;31.32;102745.41;5286258;28;20167;-70
2023/04/04 10:00:18;;;;;;;5.25;2.33;;;;;;;12.45;31.07;102737.50;5286347;28;20162;-70
2023/04/04 10:02:51;;;;;;;6.72;2.45;;;;;;;12.88;29.48;102748.38;5286297;28;20032;-69
2023/04/04 10:05:23;;;;;;;8.10;3.33;;;;;;;13.24;30.53;102741.72;5286132;28;20536;-71
2023/04/04 10:07:56;;;;;;;5.83;2.67;;;;;;;13.75;28.80;102742.94;5286212;28;20032;-70
2023/04/04 10:10:30;;;;;;;7.10;3.28;;;;;;;13.41;29.11;102742.75;5286007;28;20029;-70
2023/04/04 10:13:02;;;;;;;7.53;2.55;;;;;;;13.46;29.22;102727.94;5285995;28;20123;-70
2023/04/04 10:15:37;;;;;;;6.18;2.55;;;;;;;13.95;28.25;102731.69;5285230;28;20445;-70
2023/04/04 10:18:09;;;;;;;11.02;3.55;;;;;;;13.53;29.44;102733.22;5285708;28;20078;-70
2023/04/04 10:20:42;;;;;;;4.85;2.38;;;;;;;13.41;28.04;102734.88;5285570;28;20051;-70
2023/04/04 10:23:14;;;;;;;;;;;;;;;14.85;29.22;102740.69;5286156;28;20057;-69
2023/04/04 10:25:46;;;;;;;4.43;2.50;;;;;;;14.01;27.91;102724.72;5285712;28;19915;-70
2023/04/04 10:28:19;;;;;;;6.13;2.97;;;;;;;13.99;27.89;102734.31;5285851;28;20376;-70
2023/04/04 10:31:16;;;;;;;4.20;2.17;;;;;;;14.64;28.44;102736.28;5285634;28;20031;-69
2023/04/04 10:34:07;;;;;;;4.90;2.45;;;;;;;15.00;28.75;102735.41;5285512;28;20039;-70
2023/04/04 10:36:49;;;;;;;6.68;3.33;;;;;;;15.62;27.05;102723.06;5277961;28;20037;-70
2023/04/04 10:39:26;;;;;;;6.05;2.60;;;;;;;16.08;26.63;102734.34;5285756;28;20464;-70
2023/04/04 10:41:58;;;;;;;5.03;2.28;;;;;;;15.86;26.89;102723.91;5285307;28;20035;-70
2023/04/04 10:44:37;;;;;;;4.93;2.72;;;;;;;16.45;26.52;102720.97;5285434;28;20040;-70
2023/04/04 10:47:20;;;;;;;6.03;2.67;;;;;;;16.41;24.83;102722.75;5285077;28;20036;-69
2023/04/04 10:49:52;;;;;;;6.72;2.97;;;;;;;16.50;25.19;102709.53;5285434;28;20032;-69
2023/04/04 10:52:27;;;;;;;7.13;2.70;;;;;;;16.84;25.61;102700.50;5284723;28;20102;-70
2023/04/04 10:55:05;;;;;;;5.68;2.90;;;;;;;16.80;24.76;102718.09;5284884;28;20306;-70
2023/04/04 10:57:42;;;;;;;5.85;2.42;;;;;;;17.30;24.73;102713.28;5284606;28;20032;-69
2023/04/04 11:00:17;;;;;;;6.45;2.78;;;;;;;16.85;23.54;102700.50;5285170;28;20036;-70
2023/04/04 11:02:52;;;;;;;6.68;2.40;;;;;;;17.08;25.35;102708.22;5284763;28;20040;-70
2023/04/04 11:05:33;;;;;;;5.30;2.67;;;;;;;17.99;25.94;102706.38;5284617;28;20326;-70
2023/04/04 11:08:06;;;;;;;4.47;2.60;;;;;;;18.52;24.11;102699.44;5285022;28;20021;-70
2023/04/04 11:10:40;;;;;;;4.10;2.20;;;;;;;19.06;22.22;102697.69;5284727;28;20024;-70
2023/04/04 11:13:16;;;;;;;8.90;3.00;;;;;;;18.22;22.67;102706.03;5284463;28;20036;-70
2023/04/04 11:16:13;;;;;;;6.43;2.85;;;;;;;19.03;22.55;102700.38;5284618;28;20047;-71
2023/04/04 11:18:46;;;;;;;6.93;2.75;;;;;;;18.66;22.83;102686.00;5284425;28;20048;-69
2023/04/04 11:21:22;;;;;;;4.45;2.65;;;;;;;19.21;22.23;102681.56;5284503;28;20024;-69
2023/04/04 11:24:03;;;;;;;5.13;2.70;;;;;;;19.68;21.90;102679.72;5284480;28;20484;-69
2023/04/04 11:26:35;;;;;;;5.75;2.67;;;;;;;20.25;20.53;102679.41;5284559;28;20466;-69
2023/04/04 11:29:07;;;;;;;4.80;2.35;;;;;;;20.17;21.45;102674.28;5283613;28;20119;-69
2023/04/04 11:31:41;;;;;;;6.37;2.67;;;;;;;19.05;20.89;102666.88;5284226;28;20037;-69
2023/04/04 11:34:28;;;;;;;4.63;2.45;;;;;;;19.42;21.00;102674.13;5284273;28;20417;-69
2023/04/04 11:37:16;;;;;;;5.80;2.40;;;;;;;20.76;20.85;102668.50;5284378;28;20028;-69
2023/04/04 11:39:56;;;;;;;4.78;2.40;;;;;;;19.95;20.25;102663.34;5284329;28;20390;-69
2023/04/04 11:42:35;;;;;;;4.35;2.50;;;;;;;19.54;20.55;102671.19;5283929;28;20127;-69
2023/04/04 11:45:09;;;;;;;3.85;2.30;;;;;;;19.59;20.35;102666.69;5284260;28;20028;-69
2023/04/04 11:47:46;;;;;;;5.43;2.50;;;;;;;20.28;20.23;102666.97;5283976;28;20039;-70
2023/04/04 11:50:17;;;;;;;8.40;2.50;;;;;;;20.58;19.56;102661.84;5283410;28;20024;-70
2023/04/04 11:52:49;;;;;;;5.67;3.20;;;;;;;20.98;19.97;102652.91;5283873;28;20035;-69